Tiempo atmosférico en la estación meteorológica de Sabiñanigo, Huesca (775 m.)



Fecha
DESCASC
Temp. máxima en grados centígrados (hora)
DESCASC
Temp. mínima en grados centígrados (hora)
DESCASC
Temp. media en grados centígrados
DESCASC
Racha de viento máxima en m/sg (hora)
DESCASC
Velocidad máxima media en intervalos de 10 minutos(hora)
DESCASC
Precipitaciones diarias en mm
DESCASC
Precipitaciones de 00:00 a 06:00 en mm
DESCASC
Precipitaciones de 06:00 a 12:00 en mm
DESCASC
Precipitaciones de 12:00 a 18:00 en mm
DESCASC
Precipitaciones de 18:00 a 24:00 en mm
DESCASC
17-10-2019 19.8 (17:20) 5.8 (06:50) 12.8 3.61 (09:30) 1.94 (16:50) 0.4 0 0.4 0 0
16-10-2019 19.6 (16:50) 5.6 (04:20) 12.6 4.72 (18:00) 2.78 (18:20) 0 0 0 0 0
15-10-2019 15.2 (16:30) 5.4 (08:30) 10.3 9.44 (14:40) 5.28 (14:50) 2.6 2.6 0 0 0
14-10-2019 19 (10:40) 10.2 (22:50) 14.6 13.06 (14:10) 6.11 (12:20) 11 0 1.2 3 6.8
13-10-2019 25.7 (16:40) 15.6 (00:00) 20.7 11.39 (22:20) 6.11 (22:20) 0 0 0 0 0
12-10-2019 24.6 (13:20) 15.2 (00:00) 19.9 8.89 (18:50) 4.72 (16:00) 0 0 0 0 0
11-10-2019 27.5 (16:50) 5.4 (00:00) 16.5 4.44 (14:00) 2.78 (14:00) 0 0 0 0 0
10-10-2019 23.4 (16:10) 3.3 (00:00) 13.3 4.72 (16:20) 2.22 (17:50) 0 0 0 0 0
09-10-2019 22.4 (16:20) 8.8 (00:00) 15.6 8.33 (20:40) 4.44 (14:20) 0.2 0 0.2 0 0
08-10-2019 27.7 (16:50) 7.9 (00:00) 17.8 4.17 (13:40) 2.78 (17:40) 0 0 0 0 0
07-10-2019 25.5 (16:40) 5.7 (00:00) 15.6 7.78 (17:10) 3.33 (17:10) 0 0 0 0 0
06-10-2019 22.3 (16:30) 5.6 (00:00) 13.9 11.67 (18:00) 6.39 (18:00) 0 0 0 0 0
05-10-2019 25.4 (17:30) 5.1 (00:00) 15.2 5.83 (16:50) 3.89 (16:30) 0 0 0 0 0
04-10-2019 -- (--) -- (--) -- -- (--) -- (--) -- -- -- 0 0
03-10-2019 24.2 (17:00) 3.9 (00:00) 14.1 6.67 (17:20) 3.61 (17:30) 0 0 0 0 0
02-10-2019 21.6 (16:30) 8.7 (00:00) 15.2 14.17 (14:50) 6.94 (14:50) 0 0 0 0 0
01-10-2019 26.3 (15:30) 9.7 (00:00) 18 11.67 (17:00) 5.56 (16:50) 0 0 0 0 0
30-09-2019 29.2 (16:10) 7.3 (00:00) 18.3 4.72 (19:40) 2.78 (16:40) 0 0 0 0 0
29-09-2019 28.2 (15:50) 8.5 (00:00) 18.4 7.22 (16:20) 3.33 (16:10) 0 0 0 0 0
28-09-2019 26.7 (15:40) 6.2 (00:00) 16.5 4.72 (17:10) 2.5 (13:30) 0 0 0 0 0
27-09-2019 26.7 (16:20) 9.1 (00:00) 17.9 7.5 (16:40) 4.17 (16:40) 0 0 0 0 0
26-09-2019 27 (16:10) 7.8 (00:00) 17.4 4.72 (15:40) 2.78 (17:20) 0 0 0 0 0
25-09-2019 22 (16:50) 12.1 (00:00) 17.1 8.89 (17:50) 5 (17:10) 0 0 0 0 0
24-09-2019 25.3 (16:00) 8.4 (00:00) 16.8 9.17 (14:10) 4.72 (18:20) 0 0 0 0 0
23-09-2019 21.9 (17:10) 5.9 (00:00) 13.9 6.94 (15:40) 3.89 (15:20) 0 0 0 0 0
22-09-2019 20.4 (17:10) 9.6 (00:00) 15 7.78 (12:40) 4.17 (12:50) 2.4 0.2 1.2 1 0
21-09-2019 24.6 (16:40) 16.4 (00:00) 20.5 7.22 (16:10) 3.61 (16:50) 0 0 0 0 0
20-09-2019 26.6 (17:00) 12.8 (00:00) 19.7 9.17 (13:40) 4.72 (11:50) 0 0 0 0 0

Gráficas

Temp. máximas Temp. mínimas Temp. medias Precipitaciones Rachas de viento máximas Velocidades máximas media en intervalos de 10 minutos

Datos horarios

Fecha y hora oficial Temperatura (ºC) Velocidad del viento (km/h) Dirección del viento Racha (km/h) Dirección de racha Precipitación (mm) Presión (hPa) Tendencia (hPa) Humedad (%)
2019-10-19 23:00:00 15.5 5 Este 23 Este 0 -- -- 72
2019-10-19 22:00:00 16.5 13 Este 26 Este 0 -- -- 62
2019-10-19 21:00:00 16.4 5 Este 17 Sudeste 0 -- -- 60
2019-10-19 20:00:00 16.3 8 Sudeste 18 Sudeste 0 -- -- 60
2019-10-19 19:00:00 16.6 10 Sudeste 22 Este 0 -- -- 58
2019-10-19 18:00:00 17.1 8 Sudeste 21 Sudeste 0 -- -- 56
2019-10-19 17:00:00 17.7 14 Sudeste 24 Este 0 -- -- 54
2019-10-19 16:00:00 17.3 8 Este 17 Sudeste 0 -- -- 56
2019-10-19 15:00:00 16.6 5 Este 11 Nordeste 0 -- -- 57
2019-10-19 14:00:00 15.5 4 Este 19 Este 0 -- -- 61
2019-10-19 13:00:00 15.3 9 Sudeste 22 Sudeste 0 -- -- 59
2019-10-19 12:00:00 15.3 6 Sudeste 12 Este 0 -- -- 63
2019-10-19 11:00:00 14.8 3 Sudeste 8 Este 0 -- -- 69
2019-10-19 10:00:00 14.2 3 Nordeste 15 Sudeste 0 -- -- 71
2019-10-19 09:00:00 13.9 3 Sur 17 Sudeste 0 -- -- 71
2019-10-19 08:00:00 13.2 6 Sur 13 Sudeste 0 -- -- 81
2019-10-19 07:00:00 12.3 0 Calma 5 Sudeste 0 -- -- 91
2019-10-19 06:00:00 12.5 0 Calma 10 Sudoeste 0 -- -- 90
2019-10-19 05:00:00 12.7 0 Calma 10 Oeste 0 -- -- 88
2019-10-19 04:00:00 12.8 0 Calma 10 Sudoeste 0 -- -- 88
2019-10-19 03:00:00 12.9 3 Sur 9 Sudoeste 0 -- -- 89
2019-10-19 02:00:00 13.2 0 Calma 6 Nordeste 0 -- -- 88
2019-10-19 01:00:00 13.3 0 Calma 4 Norte 0 -- -- 88
2019-10-19 00:00:00 13.8 0 Calma 5 Este 0 -- -- 85
2019-10-18 23:00:00 14 2 Sudeste 9 Norte 0 -- -- 84
2019-10-18 22:00:00 14 0 Calma 6 Este 0 -- -- 84
2019-10-18 21:00:00 14.6 2 Nordeste 8 Este 0 -- -- 83
2019-10-18 20:00:00 15.6 0 Calma 5 Sur 0 -- -- 81
2019-10-18 19:00:00 16.7 0 Calma 11 Sudeste 0 -- -- 75
2019-10-18 18:00:00 17.5 5 Sur 12 Sudoeste 0 -- -- 69
2019-10-18 17:00:00 18.1 6 Sur 13 Sudoeste 0 -- -- 65
2019-10-18 16:00:00 18.8 6 Sur 11 Sur 0 -- -- 61
2019-10-18 15:00:00 18.3 5 Sur 9 Sudoeste 0 -- -- 69
2019-10-18 14:00:00 16.8 0 Calma 7 Sudeste 0 -- -- 80
2019-10-18 13:00:00 15.1 2 Sudeste 6 Sudeste 0 -- -- 88
2019-10-18 12:00:00 13.5 0 Calma 7 Sudeste 0 -- -- 97
2019-10-18 11:00:00 12 0 Calma 6 Nordeste 0.2 -- -- 98
2019-10-18 10:00:00 11.5 3 Sudeste 9 Sur 0.4 -- -- 98
2019-10-18 09:00:00 10.9 2 Nordeste 6 Norte 0 -- -- 97
2019-10-18 08:00:00 11 3 Oeste 8 Sudoeste 1 -- -- 97
2019-10-18 07:00:00 10.6 0 Calma 8 Sur 0 -- -- 96
2019-10-18 06:00:00 10.1 3 Sur 8 Sudeste 1.6 -- -- 96
2019-10-18 05:00:00 10 3 Oeste 8 Noroeste 2.8 -- -- 93
2019-10-18 04:00:00 10.5 4 Norte 7 Norte 0 -- -- 86
2019-10-18 03:00:00 9.7 0 Calma 4 Sudeste 0 -- -- 89
2019-10-18 02:00:00 9 0 Calma 6 Este 0 -- -- 89
2019-10-18 01:00:00 8.7 0 Calma 5 Este 0 -- -- 88
2019-10-18 00:00:00 9.2 2 Sudeste 5 Este 0 -- -- 87
2019-10-17 23:00:00 9.9 0 Calma 6 Este 0 -- -- 84
2019-10-17 22:00:00 11.7 0 Calma 4 Sudoeste 0 -- -- 81
2019-10-17 21:00:00 13 0 Calma 4 Sur 0 -- -- 74
2019-10-17 20:00:00 15 0 Calma 6 Sudeste 0 -- -- 65
2019-10-17 19:00:00 17.7 0 Calma 8 Sudoeste 0 -- -- 53
2019-10-17 18:00:00 18.9 5 Sur 11 Sudoeste 0 -- -- 48
2019-10-17 17:00:00 19.3 6 Sudoeste 13 Oeste 0 -- -- 44
2019-10-17 16:00:00 18.4 4 Sur 10 Sudeste 0 -- -- 45
2019-10-17 15:00:00 18 4 Sur 13 Sur 0 -- -- 47
2019-10-17 14:00:00 16.9 0 Calma 9 Sudeste 0 -- -- 53
2019-10-17 13:00:00 14.9 4 Sur 8 Sudoeste 0 -- -- 63
2019-10-17 12:00:00 12.4 3 Sudeste 9 Sur 0 -- -- 82
2019-10-17 11:00:00 10 4 Sur 8 Sudoeste 0.2 -- -- 88
2019-10-17 10:00:00 8.6 3 Sudeste 13 Sur 0.2 -- -- 88
2019-10-17 09:00:00 7.6 0 Calma 7 Sudeste 0 -- -- 84
2019-10-17 08:00:00 6.5 2 Sudeste 6 Este 0 -- -- 89
2019-10-17 07:00:00 5.9 2 Nordeste 4 Nordeste 0 -- -- 89
2019-10-17 06:00:00 6 0 Calma 8 Norte 0 -- -- 87
2019-10-17 05:00:00 6 5 Sudeste 8 Este 0 -- -- 87
2019-10-17 04:00:00 6.2 3 Este 6 Este 0 -- -- 86
2019-10-17 03:00:00 6.9 0 Calma 6 Sur 0 -- -- 84
2019-10-17 02:00:00 7.6 4 Sudeste 7 Este 0 -- -- 80
2019-10-17 01:00:00 8 2 Sudeste 9 Este 0 -- -- 77
2019-10-17 00:00:00 9 3 Sur 7 Sur 0 -- -- 76
2019-10-16 23:00:00 10.2 2 Sur 10 Este 0 -- -- 69
2019-10-16 22:00:00 11.5 0 Calma 10 Este 0 -- -- 64
2019-10-16 21:00:00 13 0 Calma 7 Sur 0 -- -- 58
2019-10-16 20:00:00 15 2 Sur 11 Sur 0 -- -- 48
2019-10-16 19:00:00 16.8 4 Sur 17 Sur 0 -- -- 42
2019-10-16 18:00:00 19 8 Sur 17 Sur 0 -- -- 39
2019-10-16 17:00:00 19.5 6 Sur 14 Sudoeste 0 -- -- 38
2019-10-16 16:00:00 18.4 0 Calma 10 Norte 0 -- -- 37
2019-10-16 15:00:00 18.4 3 Norte 12 Oeste 0 -- -- 37
2019-10-16 14:00:00 17.2 3 Sudoeste 12 Nordeste 0 -- -- 41
2019-10-16 13:00:00 16 4 Este 12 Sudeste 0 -- -- 44
2019-10-16 12:00:00 13.1 4 Norte 8 Noroeste 0 -- -- 54
2019-10-16 11:00:00 11.1 4 Norte 8 Nordeste 0 -- -- 66
2019-10-16 10:00:00 9 0 Calma 7 Sur 0 -- -- 77
2019-10-16 09:00:00 7.2 5 Sur 7 Sur 0 -- -- 87
2019-10-16 08:00:00 7.2 0 Calma 4 Sudeste 0 -- -- 86
2019-10-16 07:00:00 7 2 Sur 4 Sudoeste 0 -- -- 88
2019-10-16 06:00:00 6.5 0 Calma 5 Sur 0 -- -- 89
2019-10-16 05:00:00 6 0 Calma 6 Este 0 -- -- 92
2019-10-16 04:00:00 6.1 0 Calma 4 Este 0 -- -- 90
2019-10-16 03:00:00 6.6 0 Calma 3 Este 0 -- -- 90
2019-10-16 02:00:00 6.6 0 Calma 6 Este 0 -- -- 88
2019-10-16 01:00:00 6.3 0 Calma 5 Este 0 -- -- 89
2019-10-16 00:00:00 6.5 0 Calma 6 Sudeste 0 -- -- 87
2019-10-15 23:00:00 7.6 0 Calma 9 Este 0 -- -- 84
2019-10-15 22:00:00 7.5 0 Calma 6 Este 0 -- -- 82
2019-10-15 21:00:00 8.4 3 Este 7 Este 0 -- -- 78
2019-10-15 20:00:00 10.2 3 Sudeste 11 Oeste 0 -- -- 68
2019-10-15 19:00:00 12.8 6 Sudoeste 19 Oeste 0 -- -- 53
2019-10-15 18:00:00 14.3 13 Sudoeste 25 Oeste 0 -- -- 50
2019-10-15 17:00:00 15.1 13 Sudoeste 27 Sudoeste 0 -- -- 44
2019-10-15 16:00:00 14.8 14 Oeste 30 Sudoeste 0 -- -- 48
2019-10-15 15:00:00 13.4 17 Sudoeste 34 Sudoeste 0 -- -- 56
2019-10-15 14:00:00 13.1 18 Oeste 31 Oeste 0 -- -- 56
2019-10-15 13:00:00 12.2 16 Oeste 31 Noroeste 0 -- -- 58
2019-10-15 12:00:00 11.1 16 Oeste 31 Oeste 0 -- -- 64
2019-10-15 11:00:00 9.4 14 Oeste 33 Oeste 0 -- -- 72
2019-10-15 10:00:00 6.5 0 Calma 6 Este 0 -- -- 93
2019-10-15 09:00:00 5.7 0 Calma 8 Norte 0 -- -- 94
2019-10-15 08:00:00 5.7 2 Nordeste 6 Noroeste 0 -- -- 91
2019-10-15 07:00:00 6.4 3 Sur 18 Sudoeste 0 -- -- 87
2019-10-15 06:00:00 7.1 7 Sudoeste 30 Sudoeste 0.4 -- -- 84
2019-10-15 05:00:00 8.1 11 Oeste 25 Oeste 0.6 -- -- 83
2019-10-15 04:00:00 8.4 4 Sur 8 Sur 0 -- -- 90
2019-10-15 03:00:00 9 2 Sur 8 Sudoeste 0.2 -- -- 91
2019-10-15 02:00:00 9 8 Noroeste 20 Noroeste 0.2 -- -- 88
2019-10-15 01:00:00 9.7 5 Sur 12 Sur 1.2 -- -- 93
2019-10-15 00:00:00 10.3 4 Sur 15 Sudeste 0.4 -- -- 90
2019-10-14 23:00:00 10.4 9 Sudoeste 34 Noroeste 1.8 -- -- 88
2019-10-14 22:00:00 11.5 0 Calma 9 Oeste 0 -- -- 93
2019-10-14 21:00:00 11.8 3 Noroeste 9 Norte 0 -- -- 90
2019-10-14 20:00:00 12.5 2 Sudeste 21 Norte 0.2 -- -- 89
2019-10-14 19:00:00 13.8 6 Nordeste 31 Sudoeste 4.4 -- -- 88
2019-10-14 18:00:00 15.8 12 Este 28 Este 0.6 -- -- 74
2019-10-14 17:00:00 16.1 14 Sudeste 44 Sudeste 0.2 -- -- 75
2019-10-14 16:00:00 16.9 18 Sudeste 36 Este 0 -- -- 69
2019-10-14 15:00:00 16.1 6 Sudeste 47 Este 0.2 -- -- 79
2019-10-14 14:00:00 14.7 9 Este 27 Este 1.4 -- -- 84
2019-10-14 13:00:00 16 13 Sudeste 42 Este 0.6 -- -- 79
2019-10-14 12:00:00 16.2 17 Sudeste 33 Este 1.2 -- -- 77
2019-10-14 11:00:00 18.7 10 Sudeste 32 Sudeste 0 -- -- 60
2019-10-14 10:00:00 18.9 6 Este 25 Este 0 -- -- 54
2019-10-14 09:00:00 17.8 7 Noroeste 14 Este 0 -- -- 58
2019-10-14 08:00:00 17.5 6 Noroeste 14 Noroeste 0 -- -- 61
2019-10-14 07:00:00 15.9 5 Sur 13 Noroeste 0 -- -- 66
2019-10-14 06:00:00 16.4 5 Sudoeste 14 Sudoeste 0 -- -- 66
2019-10-14 05:00:00 15.3 5 Noroeste 12 Oeste 0 -- -- 73
2019-10-14 04:00:00 16.5 2 Sur 12 Este 0 -- -- 70
2019-10-14 03:00:00 17.6 6 Este 24 Este 0 -- -- 66
2019-10-14 02:00:00 17.6 7 Este 26 Este 0 -- -- 68
2019-10-14 01:00:00 18.4 12 Este 35 Este 0 -- -- 62
2019-10-14 00:00:00 18.7 15 Este 32 Nordeste 0 -- -- 66
2019-10-13 23:00:00 19 14 Este 41 Este 0 -- -- 69
2019-10-13 22:00:00 19.9 17 Este 30 Este 0 -- -- 63
2019-10-13 21:00:00 20.1 6 Este 16 Sudeste 0 -- -- 57
2019-10-13 20:00:00 20.8 7 Este 23 Este 0 -- -- 51
2019-10-13 19:00:00 22.7 13 Este 24 Este 0 -- -- 45
2019-10-13 18:00:00 23.9 11 Este 22 Este 0 -- -- 41
2019-10-13 17:00:00 25.4 15 Este 32 Este 0 -- -- 38
2019-10-13 16:00:00 25.3 15 Este 30 Este 0 -- -- 39
2019-10-13 15:00:00 24.6 16 Este 32 Este 0 -- -- 42
2019-10-13 14:00:00 22.6 18 Este 34 Este 0 -- -- 47
2019-10-13 13:00:00 20.8 14 Este 28 Nordeste 0 -- -- 53
2019-10-13 12:00:00 20.3 15 Este 29 Este 0 -- -- 57
2019-10-13 11:00:00 20 14 Este 28 Este 0 -- -- 57
2019-10-13 10:00:00 17.8 6 Sudeste 14 Sudeste 0 -- -- 65
2019-10-13 09:00:00 16.6 4 Sudeste 21 Este 0 -- -- 69
2019-10-13 08:00:00 16.3 9 Este 25 Sudeste 0 -- -- 71
2019-10-13 07:00:00 15.6 4 Sudeste 25 Este 0 -- -- 73
2019-10-13 06:00:00 16.5 11 Este 27 Sudeste 0 -- -- 70
2019-10-13 05:00:00 16.8 4 Sudeste 22 Este 0 -- -- 68
2019-10-13 04:00:00 17.3 8 Este 26 Este 0 -- -- 65
2019-10-13 03:00:00 17.9 7 Este 18 Sudeste 0 -- -- 64
2019-10-13 02:00:00 18.4 8 Nordeste 14 Nordeste 0 -- -- 64
2019-10-13 01:00:00 19 6 Sudeste 14 Este 0 -- -- 63
2019-10-13 00:00:00 19.2 6 Sudeste 28 Este 0 -- -- 62
2019-10-12 23:00:00 19.4 11 Sudeste 26 Este 0 -- -- 64
2019-10-12 22:00:00 20.1 14 Este 31 Este 0 -- -- 61
2019-10-12 21:00:00 20.3 9 Este 26 Este 0 -- -- 60
2019-10-12 20:00:00 21.2 11 Sudeste 21 Este 0 -- -- 53
2019-10-12 19:00:00 22.3 13 Este 32 Este 0 -- -- 49
2019-10-12 18:00:00 23.8 12 Este 24 Este 0 -- -- 46
2019-10-12 17:00:00 23.2 9 Este 28 Este 0 -- -- 48
2019-10-12 16:00:00 23.1 17 Este 30 Este 0 -- -- 46
2019-10-12 15:00:00 23 10 Este 31 Sudeste 0 -- -- 46
2019-10-12 14:00:00 23.6 12 Sudeste 30 Este 0 -- -- 46
2019-10-12 13:00:00 24.2 11 Este 23 Este 0 -- -- 47
2019-10-12 12:00:00 22.5 11 Este 21 Este 0 -- -- 50
2019-10-12 11:00:00 20.5 10 Sudeste 21 Este 0 -- -- 57
2019-10-12 10:00:00 19 7 Este 17 Sudeste 0 -- -- 66
2019-10-12 09:00:00 17.8 8 Este 19 Este 0 -- -- 70
2019-10-12 08:00:00 17.8 9 Este 24 Este 0 -- -- 70
2019-10-12 07:00:00 17.8 12 Sudeste 22 Sudeste 0 -- -- 72
2019-10-12 06:00:00 16.9 7 Sur 16 Sudeste 0 -- -- 75
2019-10-12 05:00:00 16.5 3 Este 9 Sudeste 0 -- -- 76
2019-10-12 04:00:00 15.8 3 Nordeste 10 Este 0 -- -- 78
2019-10-12 03:00:00 15.2 0 Calma 12 Sur 0 -- -- 78
2019-10-12 02:00:00 15.4 5 Sudeste 10 Sudeste 0 -- -- 77
2019-10-12 01:00:00 15.3 3 Sur 10 Sur 0 -- -- 74
2019-10-12 00:00:00 15.5 3 Sur 8 Este 0 -- -- 72
2019-10-11 23:00:00 16.6 0 Calma 7 Este 0 -- -- 65
2019-10-11 22:00:00 17.8 3 Sudeste 9 Este 0 -- -- 59
2019-10-11 21:00:00 19.5 6 Norte 14 Norte 0 -- -- 55
2019-10-11 20:00:00 20.3 0 Calma 8 Sudeste 0 -- -- 49
2019-10-11 19:00:00 24.9 0 Calma 9 Sur 0 -- -- 38
2019-10-11 18:00:00 27.1 5 Sur 13 Sudeste 0 -- -- 33
2019-10-11 17:00:00 27.5 5 Sur 13 Sudoeste 0 -- -- 32
2019-10-11 16:00:00 27.2 6 Sudeste 14 Sudeste 0 -- -- 31
2019-10-11 15:00:00 26.4 6 Sur 14 Sur 0 -- -- 33
2019-10-11 14:00:00 25.1 10 Sur 16 Sudeste 0 -- -- 37
2019-10-11 13:00:00 22.5 8 Sur 13 Sudeste 0 -- -- 45
2019-10-11 12:00:00 17.5 0 Calma 6 Sudeste 0 -- -- 40
2019-10-11 11:00:00 13.6 4 Sudoeste 10 Sudeste 0 -- -- 54
2019-10-11 10:00:00 9.1 0 Calma 9 Sur 0 -- -- 72
2019-10-11 09:00:00 6.3 6 Sur 10 Sur 0 -- -- 83
2019-10-11 08:00:00 5.6 0 Calma 5 Sudeste 0 -- -- 84
2019-10-11 07:00:00 5.6 2 Sudeste 6 Noroeste 0 -- -- 85
2019-10-11 06:00:00 5.7 0 Calma 8 Este 0 -- -- 84
2019-10-11 05:00:00 5.5 2 Sudeste 6 Sudeste 0 -- -- 85
2019-10-11 04:00:00 6.1 0 Calma 4 Sudeste 0 -- -- 85
2019-10-11 03:00:00 6.3 0 Calma 4 Sudeste 0 -- -- 82
2019-10-11 02:00:00 6.9 0 Calma 5 Sudeste 0 -- -- 80
2019-10-11 01:00:00 7.6 2 Sudeste 5 Sudeste 0 -- -- 71
2019-10-11 00:00:00 8.7 0 Calma 9 Este 0 -- -- 67
2019-10-10 23:00:00 9 2 Este 5 Sudeste 0 -- -- 64
2019-10-10 22:00:00 10.6 0 Calma 7 Sudeste 0 -- -- 59
2019-10-10 21:00:00 13.2 2 Sur 10 Sudeste 0 -- -- 48
2019-10-10 20:00:00 16.1 4 Sudeste 9 Oeste 0 -- -- 41
2019-10-10 19:00:00 20.2 4 Sudoeste 11 Sudoeste 0 -- -- 31
2019-10-10 18:00:00 22.5 7 Oeste 15 Oeste 0 -- -- 26
2019-10-10 17:00:00 23.2 6 Sudoeste 17 Sudoeste 0 -- -- 26
2019-10-10 16:00:00 23.3 7 Sur 15 Sur 0 -- -- 25
2019-10-10 15:00:00 22.3 6 Sudeste 15 Sudoeste 0 -- -- 27
2019-10-10 14:00:00 20.5 6 Sudeste 13 Sudeste 0 -- -- 38
2019-10-10 13:00:00 17.2 4 Sudeste 8 Sudeste 0 -- -- 50
2019-10-10 12:00:00 13.1 3 Sudeste 7 Sudeste 0 -- -- 63
2019-10-10 11:00:00 9.1 0 Calma 6 Este 0 -- -- 84
2019-10-10 10:00:00 5.8 2 Este 6 Nordeste 0 -- -- 93
2019-10-10 09:00:00 3.7 0 Calma 8 Sudoeste 0 -- -- 94
2019-10-10 08:00:00 3.5 3 Sudoeste 6 Sudoeste 0 -- -- 92
2019-10-10 07:00:00 4 0 Calma 6 Norte 0 -- -- 92
2019-10-10 06:00:00 4.9 0 Calma 5 Sudeste 0 -- -- 92
2019-10-10 05:00:00 4.6 3 Sudoeste 6 Norte 0 -- -- 91
2019-10-10 04:00:00 5.2 0 Calma 4 Este 0 -- -- 89
2019-10-10 03:00:00 5.8 0 Calma 5 Este 0 -- -- 88
2019-10-10 02:00:00 6.6 3 Sudeste 8 Sudeste 0 -- -- 85
2019-10-10 01:00:00 8 0 Calma 8 Sudeste 0 -- -- 83
2019-10-10 00:00:00 8.8 0 Calma 9 Noroeste 0 -- -- 79
2019-10-09 23:00:00 9.9 2 Sudeste 9 Nordeste 0 -- -- 76
2019-10-09 22:00:00 11.7 3 Sudeste 14 Noroeste 0 -- -- 69
2019-10-09 21:00:00 13.3 6 Sudoeste 30 Oeste 0 -- -- 63
2019-10-09 20:00:00 15.7 5 Sudoeste 21 Oeste 0 -- -- 52
2019-10-09 19:00:00 18 13 Oeste 28 Oeste 0 -- -- 43
2019-10-09 18:00:00 21.1 14 Oeste 26 Oeste 0 -- -- 41
2019-10-09 17:00:00 21.8 14 Oeste 26 Oeste 0 -- -- 40
2019-10-09 16:00:00 21.9 15 Oeste 24 Oeste 0 -- -- 43
2019-10-09 15:00:00 21.5 11 Oeste 24 Oeste 0 -- -- 48
2019-10-09 14:00:00 19.9 9 Oeste 21 Oeste 0 -- -- 55
2019-10-09 13:00:00 19.2 6 Sudoeste 10 Este 0 -- -- 57
2019-10-09 12:00:00 16.6 5 Este 15 Oeste 0.2 -- -- 71
2019-10-09 11:00:00 14.7 4 Oeste 11 Oeste 0 -- -- 76
2019-10-09 10:00:00 13.1 0 Calma 5 Este 0 -- -- 80
2019-10-09 09:00:00 11.4 3 Nordeste 12 Noroeste 0 -- -- 85
2019-10-09 08:00:00 10 0 Calma 16 Oeste 0 -- -- 86
2019-10-09 07:00:00 9.2 0 Calma 6 Norte 0 -- -- 90
2019-10-09 06:00:00 8.9 0 Calma 6 Nordeste 0 -- -- 89
2019-10-09 05:00:00 9.5 0 Calma 5 Sudeste 0 -- -- 86
2019-10-09 04:00:00 9.7 0 Calma 4 Este 0 -- -- 87
2019-10-09 03:00:00 10.3 0 Calma -- -- 0 -- -- 85
2019-10-09 02:00:00 10.9 0 Calma -- -- 0 -- -- 85
2019-10-09 01:00:00 11.8 0 Calma 0 Calma 0 -- -- 81
2019-10-09 00:00:00 13 0 Calma 4 Sudeste 0 -- -- 77
2019-10-08 23:00:00 14.2 2 Sudeste 5 Este 0 -- -- 69
2019-10-08 22:00:00 16.2 0 Calma 6 Este 0 -- -- 64
2019-10-08 21:00:00 17.8 4 Sudeste 9 Este 0 -- -- 56
2019-10-08 20:00:00 21.1 3 Este 8 Sudoeste 0 -- -- 46
2019-10-08 19:00:00 25.1 5 Sudoeste 15 Sudoeste 0 -- -- 36
2019-10-08 18:00:00 27 9 Oeste 14 Sudoeste 0 -- -- 34
2019-10-08 17:00:00 27.7 6 Sudoeste 13 Sur 0 -- -- 35
2019-10-08 16:00:00 27.5 4 Sur 10 Sudeste 0 -- -- 36
2019-10-08 15:00:00 26.6 4 Sudoeste 12 Sudeste 0 -- -- 38
2019-10-08 14:00:00 25.2 5 Sudeste 15 Sur 0 -- -- 42
2019-10-08 13:00:00 22.9 5 Sudeste 13 Sur 0 -- -- 49
2019-10-08 12:00:00 19.7 6 Sur 12 Sudeste 0 -- -- 54
2019-10-08 11:00:00 14.9 0 Calma 6 Este 0 -- -- 70
2019-10-08 10:00:00 11.2 2 Este 5 Este 0 -- -- 83
2019-10-08 09:00:00 8.3 0 Calma 5 Norte 0 -- -- 90
2019-10-08 08:00:00 8.1 2 Nordeste 5 Nordeste 0 -- -- 88
2019-10-08 07:00:00 8.3 0 Calma 8 Sudoeste 0 -- -- 86
2019-10-08 06:00:00 8.7 0 Calma 3 Sur 0 -- -- 87
2019-10-08 05:00:00 9.1 0 Calma 6 Nordeste 0 -- -- 84
2019-10-08 04:00:00 9.8 0 Calma 5 Sudeste 0 -- -- 81
2019-10-08 03:00:00 10.6 2 Este 4 Nordeste 0 -- -- 78
2019-10-08 02:00:00 11.4 5 Nordeste 9 Nordeste 0 -- -- 74
2019-10-08 01:00:00 11.4 3 Sudeste 8 Este 0 -- -- 72
2019-10-08 00:00:00 12.5 3 Este 8 Este 0 -- -- 70
2019-10-07 23:00:00 13.5 5 Este 10 Este 0 -- -- 62
2019-10-07 22:00:00 15.6 0 Calma 10 Noroeste 0 -- -- 55
2019-10-07 21:00:00 17.9 9 Noroeste 22 Oeste 0 -- -- 46
2019-10-07 20:00:00 20.8 8 Oeste 22 Oeste 0 -- -- 40
2019-10-07 19:00:00 22.9 5 Sur 23 Sur 0 -- -- 36
2019-10-07 18:00:00 24.9 8 Sur 28 Sudeste 0 -- -- 30
2019-10-07 17:00:00 25.3 11 Sur 27 Sudeste 0 -- -- 27
2019-10-07 16:00:00 25 9 Sur 18 Sudeste 0 -- -- 25
2019-10-07 15:00:00 23.8 5 Este 12 Sudeste 0 -- -- 28
2019-10-07 14:00:00 20.4 3 Este 13 Este 0 -- -- 32
2019-10-07 13:00:00 17.8 5 Este 12 Este 0 -- -- 38
2019-10-07 12:00:00 14.2 5 Este 10 Nordeste 0 -- -- 48
2019-10-07 11:00:00 10.7 0 Calma 7 Nordeste 0 -- -- 63
2019-10-07 10:00:00 8.1 3 Norte 6 Norte 0 -- -- 75
2019-10-07 09:00:00 6 0 Calma 6 Sur 0 -- -- 81
2019-10-07 08:00:00 5.9 0 Calma 9 Este 0 -- -- 78
2019-10-07 07:00:00 6 3 Este 8 Este 0 -- -- 76
2019-10-07 06:00:00 6.5 3 Sudeste 6 Este 0 -- -- 73
2019-10-07 05:00:00 7.5 2 Sudeste 8 Sudeste 0 -- -- 71
2019-10-07 04:00:00 8.4 2 Este 12 Este 0 -- -- 67
2019-10-07 03:00:00 9.4 6 Sur 10 Sudeste 0 -- -- 66
2019-10-07 02:00:00 10.3 4 Sudeste 15 Sudoeste 0 -- -- 65
2019-10-07 01:00:00 10.4 4 Sudeste 15 Sudeste 0 -- -- 68
2019-10-07 00:00:00 11.8 3 Sur 12 Oeste 0 -- -- 63
2019-10-06 23:00:00 12.5 4 Este 14 Este 0 -- -- 64
2019-10-06 22:00:00 14 4 Sudoeste 23 Sudoeste 0 -- -- 59
2019-10-06 21:00:00 14.9 13 Noroeste 29 Oeste 0 -- -- 60
2019-10-06 20:00:00 16.6 6 Nordeste 24 Sudoeste 0 -- -- 56
2019-10-06 19:00:00 18.2 17 Sudoeste 39 Oeste 0 -- -- 49
2019-10-06 18:00:00 20.4 23 Oeste 42 Sudoeste 0 -- -- 42
2019-10-06 17:00:00 21.7 17 Oeste 32 Oeste 0 -- -- 43
2019-10-06 16:00:00 21.9 9 Oeste 29 Noroeste 0 -- -- 46
2019-10-06 15:00:00 20.1 14 Noroeste 27 Oeste 0 -- -- 48
2019-10-06 14:00:00 17.6 10 Oeste 18 Oeste 0 -- -- 52
2019-10-06 13:00:00 15.9 7 Oeste 16 Noroeste 0 -- -- 58
2019-10-06 12:00:00 13.7 3 Oeste 9 Oeste 0 -- -- 71
2019-10-06 11:00:00 11.7 5 Noroeste 8 Norte 0 -- -- 79
2019-10-06 10:00:00 9 3 Este 11 Nordeste 0 -- -- 86
2019-10-06 09:00:00 6 4 Norte 7 Norte 0 -- -- 92
2019-10-06 08:00:00 5.8 0 Calma 5 Sudeste 0 -- -- 91
2019-10-06 07:00:00 6.3 2 Noroeste 6 Nordeste 0 -- -- 91
2019-10-06 06:00:00 6.7 0 Calma 5 Nordeste 0 -- -- 91
2019-10-06 05:00:00 7.1 0 Calma 4 Este 0 -- -- 90
2019-10-06 04:00:00 7.3 3 Sudeste 6 Este 0 -- -- 88
2019-10-06 03:00:00 8.4 0 Calma -- -- 0 -- -- 88
2019-10-06 02:00:00 9.2 0 Calma 0 Calma 0 -- -- 85
2019-10-06 01:00:00 10.3 0 Calma 5 Sudoeste 0 -- -- 82
2019-10-06 00:00:00 11.1 0 Calma 5 Este 0 -- -- 76
2019-10-05 23:00:00 12.7 0 Calma 5 Este 0 -- -- 71
2019-10-05 22:00:00 14.9 2 Este 6 Este 0 -- -- 64
2019-10-05 21:00:00 17 0 Calma 6 Sur 0 -- -- 58
2019-10-05 20:00:00 20 3 Este 8 Sudoeste 0 -- -- 48
2019-10-05 19:00:00 24.3 4 Sudoeste 17 Noroeste 0 -- -- 36
2019-10-05 18:00:00 25.3 8 Oeste 17 Oeste 0 -- -- 33
2019-10-05 17:00:00 25.1 11 Oeste 21 Oeste 0 -- -- 28
2019-10-05 16:00:00 25.1 10 Oeste 15 Sudoeste 0 -- -- 32
2019-10-05 15:00:00 24.1 7 Sur 14 Sur 0 -- -- 36
2019-10-05 14:00:00 21.7 4 Este 10 Sudeste 0 -- -- 37
2019-10-05 13:00:00 18.9 3 Norte 8 Oeste 0 -- -- 43
2019-10-05 12:00:00 15.2 3 Nordeste 10 Este 0 -- -- 60
2019-10-05 11:00:00 11.9 6 Este 9 Este 0 -- -- 78
2019-10-05 10:00:00 8 0 Calma 6 Este 0 -- -- 93
2019-10-05 09:00:00 5.5 0 Calma 3 Este 0 -- -- 94
2019-10-05 08:00:00 5.4 0 Calma 5 Este 0 -- -- 93
2019-10-05 07:00:00 5.9 0 Calma 4 Este 0 -- -- 92
2019-10-05 06:00:00 6.6 0 Calma 6 Oeste 0 -- -- 92
2019-10-05 05:00:00 7.3 0 Calma 4 Este 0 -- -- 91
2019-10-05 04:00:00 8 2 Este 5 Este 0 -- -- 89
2019-10-05 03:00:00 9.3 0 Calma 7 Este 0 -- -- 88
2019-10-05 02:00:00 10.2 5 Este 8 Este 0 -- -- 86
2019-10-05 01:00:00 11.7 0 Calma 10 Noroeste 0 -- -- 81
2019-10-05 00:00:00 13.4 0 Calma 15 Noroeste 0 -- -- 77
2019-10-04 23:00:00 14.5 5 Este 13 Noroeste 0 -- -- 73
2019-10-04 22:00:00 16.8 5 Noroeste 21 Sudoeste 0 -- -- 65
2019-10-04 21:00:00 18.2 6 Sudoeste 21 Sudoeste 0 -- -- 57
2019-10-04 20:00:00 20.2 12 Sudoeste 21 Sudoeste 0 -- -- 48
2019-10-04 19:00:00 22.4 14 Sudoeste 30 Oeste 0 -- -- 41
2019-10-04 18:00:00 24.4 12 Oeste 28 Oeste 0 -- -- 40
2019-10-04 17:00:00 24.7 14 Oeste 27 Oeste 0 -- -- 38
2019-10-04 16:00:00 25.3 12 Oeste 27 Oeste 0 -- -- 37
2019-10-04 15:00:00 24.9 10 Oeste 15 Oeste 0 -- -- 39
2019-10-04 14:00:00 22.8 6 Nordeste 14 Este 0 -- -- 42
2019-10-04 13:00:00 20.6 6 Este 9 Sudeste 0 -- -- 41
2019-10-04 12:00:00 16.2 2 Este 6 Sudoeste 0 -- -- 49
2019-10-04 11:00:00 11.6 0 Calma 6 Nordeste 0 -- -- 57
2019-10-04 10:00:00 7.5 4 Norte 8 Norte 0 -- -- 72
2019-10-04 09:00:00 -- -- -- -- -- -- -- -- --
2019-10-04 08:00:00 -- -- -- -- -- -- -- -- --
2019-10-04 07:00:00 -- -- -- -- -- -- -- -- --
2019-10-04 06:00:00 -- -- -- -- -- -- -- -- --
2019-10-04 05:00:00 -- -- -- -- -- -- -- -- --
2019-10-04 04:00:00 -- -- -- -- -- -- -- -- --
2019-10-04 03:00:00 -- -- -- -- -- -- -- -- --
2019-10-04 02:00:00 -- -- -- -- -- -- -- -- --
2019-10-04 01:00:00 7.9 0 Calma 5 Este 0 -- -- 68
2019-10-04 00:00:00 9.7 0 Calma 6 Norte 0 -- -- 66
2019-10-03 23:00:00 11.2 0 Calma 6 Este 0 -- -- 62
2019-10-03 22:00:00 13.3 2 Sur 9 Noroeste 0 -- -- 50
2019-10-03 21:00:00 16.4 3 Nordeste 16 Noroeste 0 -- -- 41
2019-10-03 20:00:00 18.6 7 Norte 22 Oeste 0 -- -- 27
2019-10-03 19:00:00 22.3 11 Oeste 23 Sudoeste 0 -- -- 17
2019-10-03 18:00:00 23.5 13 Oeste 24 Oeste 0 -- -- 23
2019-10-03 17:00:00 24.2 10 Oeste 23 Oeste 0 -- -- 25
2019-10-03 16:00:00 22.8 10 Noroeste 22 Oeste 0 -- -- 31
2019-10-03 15:00:00 21.4 11 Oeste 21 Oeste 0 -- -- 32
2019-10-03 14:00:00 19 5 Nordeste 12 Este 0 -- -- 42
2019-10-03 13:00:00 16.4 3 Sudeste 8 Este 0 -- -- 45
2019-10-03 12:00:00 13.1 5 Este 12 Este 0 -- -- 59
2019-10-03 11:00:00 9 2 Este 8 Nordeste 0 -- -- 74
2019-10-03 10:00:00 6.2 0 Calma 5 Nordeste 0 -- -- 86
2019-10-03 09:00:00 4.5 0 Calma 5 Sudeste 0 -- -- 92
2019-10-03 08:00:00 4 0 Calma 3 Sudeste 0 -- -- 92
2019-10-03 07:00:00 4.3 0 Calma 4 Este 0 -- -- 92
2019-10-03 06:00:00 5 0 Calma 6 Norte 0 -- -- 91
2019-10-03 05:00:00 5 4 Norte 6 Norte 0 -- -- 91
2019-10-03 04:00:00 5.4 3 Sudeste 6 Este 0 -- -- 88
2019-10-03 03:00:00 6.7 0 Calma 6 Este 0 -- -- 88
2019-10-03 02:00:00 7.3 0 Calma 8 Este 0 -- -- 85
2019-10-03 01:00:00 8.3 3 Este 7 Este 0 -- -- 84
2019-10-03 00:00:00 8.7 5 Sudeste 10 Este 0 -- -- 81
2019-10-02 23:00:00 9.9 2 Nordeste 6 Este 0 -- -- 79
2019-10-02 22:00:00 11.6 3 Este 10 Sudeste 0 -- -- 71
2019-10-02 21:00:00 13.7 2 Sur 19 Sudoeste 0 -- -- 63
2019-10-02 20:00:00 15.5 13 Oeste 33 Oeste 0 -- -- 55
2019-10-02 19:00:00 17 17 Oeste 32 Oeste 0 -- -- 50
2019-10-02 18:00:00 20 15 Oeste 36 Oeste 0 -- -- 40
2019-10-02 17:00:00 21.2 18 Oeste 35 Oeste 0 -- -- 36
2019-10-02 16:00:00 21.1 19 Noroeste 39 Sudoeste 0 -- -- 33
2019-10-02 15:00:00 20.3 25 Oeste 51 Oeste 0 -- -- 37
2019-10-02 14:00:00 19 19 Oeste 40 Oeste 0 -- -- 47
2019-10-02 13:00:00 18.2 17 Oeste 37 Oeste 0 -- -- 40
2019-10-02 12:00:00 16.1 9 Oeste 18 Oeste 0 -- -- 63
2019-10-02 11:00:00 14.1 9 Oeste 19 Oeste 0 -- -- 73
2019-10-02 10:00:00 12.7 10 Oeste 30 Oeste 0 -- -- 79
2019-10-02 09:00:00 12 4 Noroeste 15 Norte 0 -- -- 77
2019-10-02 08:00:00 10.9 4 Sudeste 9 Nordeste 0 -- -- 76
2019-10-02 07:00:00 12.2 2 Nordeste 17 Sudoeste 0 -- -- 68
2019-10-02 06:00:00 12.5 5 Sur 17 Sudoeste 0 -- -- 66
2019-10-02 05:00:00 12.8 4 Este 27 Sudoeste 0 -- -- 66
2019-10-02 04:00:00 13.2 9 Sudoeste 22 Sudoeste 0 -- -- 62
2019-10-02 03:00:00 12 11 Nordeste 16 Nordeste 0 -- -- 80
2019-10-02 02:00:00 12.7 6 Sudoeste 12 Noroeste 0 -- -- 75
2019-10-02 01:00:00 14 9 Noroeste 15 Noroeste 0 -- -- 69
2019-10-02 00:00:00 13.7 2 Oeste 9 Sudoeste 0 -- -- 66
2019-10-01 23:00:00 15.4 4 Norte 22 Oeste 0 -- -- 60
2019-10-01 22:00:00 17.3 13 Oeste 22 Oeste 0 -- -- 52
2019-10-01 21:00:00 18.9 11 Sudoeste 21 Sudoeste 0 -- -- 46
2019-10-01 20:00:00 20.5 12 Sudoeste 28 Oeste 0 -- -- 41
2019-10-01 19:00:00 22.7 14 Oeste 32 Oeste 0 -- -- 36
2019-10-01 18:00:00 24.4 16 Sudoeste 38 Sudoeste 0 -- -- 36
2019-10-01 17:00:00 24.5 20 Oeste 42 Oeste 0 -- -- 37
2019-10-01 16:00:00 25.5 14 Oeste 31 Oeste 0 -- -- 37
2019-10-01 15:00:00 25.9 14 Oeste 28 Oeste 0 -- -- 34
2019-10-01 14:00:00 24.4 13 Oeste 24 Oeste 0 -- -- 37
2019-10-01 13:00:00 25.7 5 Sudeste 9 Sudeste 0 -- -- 33
2019-10-01 12:00:00 21.9 3 Este 9 Este 0 -- -- 42
2019-10-01 11:00:00 17.9 0 Calma 5 Nordeste 0 -- -- 53
2019-10-01 10:00:00 13.9 0 Calma 5 Sudeste 0 -- -- 72
2019-10-01 09:00:00 10.4 0 Calma 6 Norte 0 -- -- 81
2019-10-01 08:00:00 9.8 0 Calma 5 Norte 0 -- -- 82
2019-10-01 07:00:00 10 0 Calma 6 Sudeste 0 -- -- 81
2019-10-01 06:00:00 10.2 3 Este 8 Este 0 -- -- 78
2019-10-01 05:00:00 10.3 3 Sudeste 7 Sudeste 0 -- -- 78
2019-10-01 04:00:00 10.8 2 Este 6 Este 0 -- -- 77
2019-10-01 03:00:00 11.2 0 Calma 4 Sudeste 0 -- -- 77
2019-10-01 02:00:00 11.7 3 Este 6 Sudeste 0 -- -- 75
2019-10-01 01:00:00 12.7 0 Calma 5 Sudeste 0 -- -- 75
2019-10-01 00:00:00 13.6 4 Este 8 Este 0 -- -- 64
2019-09-30 23:00:00 15.2 0 Calma 7 Este 0 -- -- 57
2019-09-30 22:00:00 16.9 3 Sudeste 8 Este 0 -- -- 53
2019-09-30 21:00:00 19.7 3 Nordeste 8 Este 0 -- -- 46
2019-09-30 20:00:00 23.8 5 Sudeste 17 Sur 0 -- -- 35
2019-09-30 19:00:00 26.7 6 Sur 15 Sur 0 -- -- 30
2019-09-30 18:00:00 28.4 8 Sur 13 Sudeste 0 -- -- 26
2019-09-30 17:00:00 28.8 9 Sudoeste 13 Sudoeste 0 -- -- 25
2019-09-30 16:00:00 29.1 9 Sudoeste 15 Oeste 0 -- -- 25
2019-09-30 15:00:00 29 8 Sudeste 12 Sur 0 -- -- 26
2019-09-30 14:00:00 27.4 5 Sudeste 10 Sudeste 0 -- -- 28
2019-09-30 13:00:00 25.4 2 Norte 11 Nordeste 0 -- -- 29
2019-09-30 12:00:00 21 3 Norte 7 Nordeste 0 -- -- 40
2019-09-30 11:00:00 16.7 0 Calma 5 Sudeste 0 -- -- 54
2019-09-30 10:00:00 11.5 0 Calma 5 Nordeste 0 -- -- 77
2019-09-30 09:00:00 8.1 3 Nordeste 4 Nordeste 0 -- -- 87
2019-09-30 08:00:00 7.4 0 Calma 4 Sur 0 -- -- 85
2019-09-30 07:00:00 7.7 0 Calma 4 Nordeste 0 -- -- 86
2019-09-30 06:00:00 8.1 0 Calma 4 Este 0 -- -- 85
2019-09-30 05:00:00 8.6 0 Calma 5 Sudoeste 0 -- -- 83
2019-09-30 04:00:00 9.3 0 Calma 4 Sudeste 0 -- -- 82
2019-09-30 03:00:00 10.2 0 Calma 4 Nordeste 0 -- -- 74
2019-09-30 02:00:00 11 0 Calma 6 Sudoeste 0 -- -- 72
2019-09-30 01:00:00 11.9 0 Calma 4 Este 0 -- -- 67
2019-09-30 00:00:00 12.8 0 Calma 8 Este 0 -- -- 61
2019-09-29 23:00:00 13.7 2 Este 5 Sudeste 0 -- -- 61
2019-09-29 22:00:00 16.2 0 Calma 10 Este 0 -- -- 49
2019-09-29 21:00:00 18.5 0 Calma 5 Este 0 -- -- 42
2019-09-29 20:00:00 22.8 0 Calma 14 Oeste 0 -- -- 32
2019-09-29 19:00:00 26.1 8 Oeste 18 Oeste 0 -- -- 22
2019-09-29 18:00:00 27.6 12 Sudoeste 19 Sudoeste 0 -- -- 16
2019-09-29 17:00:00 27.9 10 Oeste 26 Oeste 0 -- -- 17
2019-09-29 16:00:00 28.1 10 Oeste 18 Oeste 0 -- -- 20
2019-09-29 15:00:00 27.5 9 Noroeste 12 Noroeste 0 -- -- 23
2019-09-29 14:00:00 27.2 6 Sur 12 Este 0 -- -- 26
2019-09-29 13:00:00 25.3 3 Sur 9 Sur 0 -- -- 31
2019-09-29 12:00:00 21.4 4 Este 8 Sudeste 0 -- -- 45
2019-09-29 11:00:00 17.1 3 Noroeste 5 Oeste 0 -- -- 55
2019-09-29 10:00:00 12.9 0 Calma 4 Este 0 -- -- 74
2019-09-29 09:00:00 9.4 3 Este 6 Sudeste 0 -- -- 87
2019-09-29 08:00:00 8.6 3 Sudeste 7 Norte 0 -- -- 88
2019-09-29 07:00:00 8.8 2 Sudeste 5 Este 0 -- -- 87
2019-09-29 06:00:00 9.1 0 Calma 7 Este 0 -- -- 86
2019-09-29 05:00:00 9.6 2 Este 9 Este 0 -- -- 86
2019-09-29 04:00:00 10 4 Sudeste 9 Este 0 -- -- 82
2019-09-29 03:00:00 10.2 4 Sudeste 6 Este 0 -- -- 81
2019-09-29 02:00:00 10.8 2 Nordeste 5 Sudeste 0 -- -- 80
2019-09-29 01:00:00 11.4 4 Sudeste 7 Este 0 -- -- 76
2019-09-29 00:00:00 12.1 3 Este 6 Sudeste 0 -- -- 72
2019-09-28 23:00:00 13.6 6 Este 9 Sudeste 0 -- -- 66
2019-09-28 22:00:00 14.9 3 Este 6 Nordeste 0 -- -- 63
2019-09-28 21:00:00 17.1 3 Sudeste 6 Nordeste 0 -- -- 54
2019-09-28 20:00:00 22.1 4 Sudoeste 13 Oeste 0 -- -- 39
2019-09-28 19:00:00 24.7 7 Sur 14 Sur 0 -- -- 33
2019-09-28 18:00:00 26.5 5 Sur 17 Sudoeste 0 -- -- 29
2019-09-28 17:00:00 26.6 8 Sur 17 Sur 0 -- -- 30
2019-09-28 16:00:00 26.5 8 Sur 17 Sudeste 0 -- -- 32
2019-09-28 15:00:00 26.1 6 Sur 13 Sudeste 0 -- -- 30
2019-09-28 14:00:00 25.2 7 Sudeste 15 Sudoeste 0 -- -- 32
2019-09-28 13:00:00 23.8 7 Sur 14 Sur 0 -- -- 34
2019-09-28 12:00:00 19.2 2 Oeste 8 Sudoeste 0 -- -- 42
2019-09-28 11:00:00 14.6 0 Calma 9 Noroeste 0 -- -- 57
2019-09-28 10:00:00 10.5 0 Calma 4 Nordeste 0 -- -- 77
2019-09-28 09:00:00 7.1 0 Calma 6 Sudoeste 0 -- -- 86
2019-09-28 08:00:00 6.4 5 Sudoeste 9 Sudoeste 0 -- -- 86
2019-09-28 07:00:00 6.8 0 Calma 4 Sudoeste 0 -- -- 85
2019-09-28 06:00:00 7.2 0 Calma 4 Sudeste 0 -- -- 85
2019-09-28 05:00:00 7.6 0 Calma 5 Norte 0 -- -- 82
2019-09-28 04:00:00 7.8 3 Este 5 Este 0 -- -- 78
2019-09-28 03:00:00 8.4 0 Calma 5 Nordeste 0 -- -- 83
2019-09-28 02:00:00 9.4 0 Calma 5 Nordeste 0 -- -- 73
2019-09-28 01:00:00 9.9 0 Calma 5 Este 0 -- -- 67
2019-09-28 00:00:00 10.9 2 Este 7 Este 0 -- -- 67
2019-09-27 23:00:00 12.1 2 Nordeste 6 Este 0 -- -- 64
2019-09-27 22:00:00 14.4 3 Sudeste 5 Sudeste 0 -- -- 49
2019-09-27 21:00:00 18.2 5 Norte 9 Noroeste 0 -- -- 42
2019-09-27 20:00:00 21.8 7 Oeste 12 Sudoeste 0 -- -- 31
2019-09-27 19:00:00 24.9 6 Oeste 16 Oeste 0 -- -- 23
2019-09-27 18:00:00 25.9 11 Sudoeste 26 Oeste 0 -- -- 21
2019-09-27 17:00:00 26.1 14 Oeste 27 Oeste 0 -- -- 31
2019-09-27 16:00:00 26.3 13 Oeste 26 Oeste 0 -- -- 31
2019-09-27 15:00:00 26.3 11 Oeste 19 Oeste 0 -- -- 29
2019-09-27 14:00:00 26.3 8 Este 12 Sudeste 0 -- -- 32
2019-09-27 13:00:00 24.6 5 Sudoeste 12 Sur 0 -- -- 36
2019-09-27 12:00:00 21.7 4 Sudeste 8 Noroeste 0 -- -- 48
2019-09-27 11:00:00 16.8 0 Calma 4 Norte 0 -- -- 66
2019-09-27 10:00:00 13.1 0 Calma 4 Sudeste 0 -- -- 80
2019-09-27 09:00:00 9.8 3 Este 5 Este 0 -- -- 92
2019-09-27 08:00:00 9.3 0 Calma 4 Nordeste 0 -- -- 90
2019-09-27 07:00:00 9.7 0 Calma 4 Sudeste 0 -- -- 89
2019-09-27 06:00:00 10.2 0 Calma 5 Sudeste 0 -- -- 90
2019-09-27 05:00:00 10.6 0 Calma 5 Este 0 -- -- 88
2019-09-27 04:00:00 11.1 0 Calma 7 Este 0 -- -- 88
2019-09-27 03:00:00 11.5 0 Calma 5 Sudeste 0 -- -- 87
2019-09-27 02:00:00 11.9 0 Calma 3 Este 0 -- -- 84
2019-09-27 01:00:00 12.6 4 Este 7 Este 0 -- -- 81
2019-09-27 00:00:00 14 0 Calma 6 Este 0 -- -- 78
2019-09-26 23:00:00 14.9 3 Sudeste 9 Este 0 -- -- 72
2019-09-26 22:00:00 17.5 0 Calma 7 Noroeste 0 -- -- 65
2019-09-26 21:00:00 19.7 2 Nordeste 7 Nordeste 0 -- -- 57
2019-09-26 20:00:00 22.5 5 Sudoeste 13 Sudoeste 0 -- -- 47
2019-09-26 19:00:00 25.6 8 Sudoeste 14 Sudoeste 0 -- -- 37
2019-09-26 18:00:00 26.6 8 Sur 14 Sudoeste 0 -- -- 34
2019-09-26 17:00:00 26.8 7 Sudoeste 14 Sudoeste 0 -- -- 33
2019-09-26 16:00:00 26.9 8 Sur 17 Oeste 0 -- -- 35
2019-09-26 15:00:00 26.3 6 Sur 13 Sudeste 0 -- -- 36
2019-09-26 14:00:00 24.9 6 Sur 13 Sur 0 -- -- 38
2019-09-26 13:00:00 22.7 4 Sudeste 9 Sur 0 -- -- 43
2019-09-26 12:00:00 19.9 3 Sudeste 9 Sudoeste 0 -- -- 49
2019-09-26 11:00:00 15.4 2 Este 8 Nordeste 0 -- -- 67
2019-09-26 10:00:00 12.2 4 Norte 7 Nordeste 0 -- -- 83
2019-09-26 09:00:00 9.1 0 Calma 5 Nordeste 0 -- -- 93
2019-09-26 08:00:00 8.1 0 Calma -- -- 0 -- -- 91
2019-09-26 07:00:00 8.6 0 Calma 5 Sudoeste 0 -- -- 90
2019-09-26 06:00:00 9 0 Calma 5 Nordeste 0 -- -- 89
2019-09-26 05:00:00 9.6 0 Calma 6 Este 0 -- -- 86
2019-09-26 04:00:00 10.2 0 Calma 6 Este 0 -- -- 87
2019-09-26 03:00:00 11.1 0 Calma 4 Este 0 -- -- 82
2019-09-26 02:00:00 12 0 Calma 6 Este 0 -- -- 79
2019-09-26 01:00:00 12.9 0 Calma 6 Nordeste 0 -- -- 75
2019-09-26 00:00:00 14.1 4 Este 8 Sudoeste 0 -- -- 70
2019-09-25 23:00:00 14.4 0 Calma 7 Norte 0 -- -- 69
2019-09-25 22:00:00 14.7 3 Sudeste 8 Sudoeste 0 -- -- 68
2019-09-25 21:00:00 16 3 Oeste 13 Oeste 0 -- -- 62
2019-09-25 20:00:00 17 6 Oeste 18 Sudoeste 0 -- -- 56
2019-09-25 19:00:00 18.5 8 Oeste 26 Oeste 0 -- -- 51
2019-09-25 18:00:00 19.9 17 Oeste 32 Oeste 0 -- -- 46
2019-09-25 17:00:00 21.7 16 Oeste 30 Oeste 0 -- -- 41
2019-09-25 16:00:00 21.7 13 Oeste 30 Oeste 0 -- -- 41
2019-09-25 15:00:00 20.7 17 Oeste 30 Oeste 0 -- -- 43
2019-09-25 14:00:00 21.1 14 Oeste 27 Oeste 0 -- -- 41
2019-09-25 13:00:00 19.9 12 Sudoeste 22 Sudoeste 0 -- -- 45
2019-09-25 12:00:00 17.8 11 Oeste 22 Noroeste 0 -- -- 54
2019-09-25 11:00:00 14.9 6 Este 11 Nordeste 0 -- -- 71
2019-09-25 10:00:00 13.1 5 Oeste 11 Noroeste 0 -- -- 77
2019-09-25 09:00:00 12.5 0 Calma 10 Oeste 0 -- -- 82
2019-09-25 08:00:00 12.1 5 Oeste 9 Sudoeste 0 -- -- 86
2019-09-25 07:00:00 12.8 0 Calma 14 Noroeste 0 -- -- 85
2019-09-25 06:00:00 13.1 4 Oeste 14 Noroeste 0 -- -- 84
2019-09-25 05:00:00 13.4 4 Nordeste 10 Sur 0 -- -- 86
2019-09-25 04:00:00 14.1 2 Noroeste 10 Sudoeste 0 -- -- 86
2019-09-25 03:00:00 14.1 0 Calma 6 Sudeste 0 -- -- 80
2019-09-25 02:00:00 14.4 0 Calma 12 Este 0 -- -- 78
2019-09-25 01:00:00 14.2 6 Oeste 17 Oeste 0 -- -- 81
2019-09-25 00:00:00 13.2 0 Calma 4 Nordeste 0 -- -- 81
2019-09-24 23:00:00 14.7 0 Calma 9 Noroeste 0 -- -- 74
2019-09-24 22:00:00 17.1 7 Noroeste 12 Noroeste 0 -- -- 65
2019-09-24 21:00:00 19.8 6 Oeste 10 Sudoeste 0 -- -- 57
2019-09-24 20:00:00 21.4 8 Sudoeste 19 Sudoeste 0 -- -- 48
2019-09-24 19:00:00 23.8 12 Oeste 28 Sudoeste 0 -- -- 39
2019-09-24 18:00:00 23.9 12 Oeste 27 Sudoeste 0 -- -- 40
2019-09-24 17:00:00 24.7 13 Oeste 28 Noroeste 0 -- -- 39
2019-09-24 16:00:00 25.3 14 Oeste 32 Noroeste 0 -- -- 36
2019-09-24 15:00:00 24.4 14 Noroeste 33 Noroeste 0 -- -- 37
2019-09-24 14:00:00 23.8 13 Noroeste 28 Oeste 0 -- -- 36
2019-09-24 13:00:00 23.6 12 Oeste 28 Oeste 0 -- -- 34
2019-09-24 12:00:00 20.7 4 Este 7 Este 0 -- -- 43
2019-09-24 11:00:00 16 0 Calma 5 Sudeste 0 -- -- 58
2019-09-24 10:00:00 12.2 0 Calma 6 Este 0 -- -- 75
2019-09-24 09:00:00 9.4 0 Calma 6 Nordeste 0 -- -- 87
2019-09-24 08:00:00 8.6 0 Calma 4 Sur 0 -- -- 87
2019-09-24 07:00:00 9 0 Calma 5 Nordeste 0 -- -- 85
2019-09-24 06:00:00 9.5 3 Sudeste 6 Este 0 -- -- 83
2019-09-24 05:00:00 10.2 0 Calma 6 Este 0 -- -- 78
2019-09-24 04:00:00 9.4 0 Calma 4 Este 0 -- -- 83
2019-09-24 03:00:00 10.3 3 Este 5 Este 0 -- -- 79
2019-09-24 02:00:00 11.2 3 Este 8 Este 0 -- -- 73
2019-09-24 01:00:00 11.2 0 Calma 8 Este 0 -- -- 74
2019-09-24 00:00:00 11.3 4 Este 8 Este 0 -- -- 75
2019-09-23 23:00:00 12.7 0 Calma 5 Sudeste 0 -- -- 73
2019-09-23 22:00:00 14.4 3 Este 8 Este 0 -- -- 59
2019-09-23 21:00:00 15.4 3 Este 7 Este 0 -- -- 55
2019-09-23 20:00:00 18.5 2 Oeste 13 Oeste 0 -- -- 47
2019-09-23 19:00:00 20.1 9 Oeste 21 Oeste 0 -- -- 37
2019-09-23 18:00:00 21 13 Oeste 24 Oeste 0 -- -- 37
2019-09-23 17:00:00 21.8 13 Oeste 21 Oeste 0 -- -- 34
2019-09-23 16:00:00 21.6 10 Oeste 25 Oeste 0 -- -- 31
2019-09-23 15:00:00 20.9 11 Noroeste 21 Noroeste 0 -- -- 31
2019-09-23 14:00:00 20.3 10 Oeste 18 Oeste 0 -- -- 34
2019-09-23 13:00:00 19.2 5 Este 11 Sudeste 0 -- -- 46
2019-09-23 12:00:00 16 3 Este 8 Este 0 -- -- 56
2019-09-23 11:00:00 12 3 Este 6 Este 0 -- -- 77
2019-09-23 10:00:00 8.9 0 Calma 4 Este 0 -- -- 93
2019-09-23 09:00:00 7.1 0 Calma 4 Este 0 -- -- 96
2019-09-23 08:00:00 6 0 Calma 5 Nordeste 0 -- -- 95
2019-09-23 07:00:00 6.2 0 Calma -- -- 0 -- -- 95
2019-09-23 06:00:00 6.1 0 Calma 3 Este 0 -- -- 94
2019-09-23 05:00:00 6.4 0 Calma 4 Sudeste 0 -- -- 94
2019-09-23 04:00:00 6.8 0 Calma 5 Sudeste -- -- -- 94
2019-09-23 03:00:00 7.5 0 Calma 5 Este 0 -- -- 93
2019-09-23 02:00:00 7.9 0 Calma 2 Sudeste 0 -- -- 92
2019-09-23 01:00:00 8.7 0 Calma 6 Este 0 -- -- 91
2019-09-23 00:00:00 9.6 0 Calma 6 Este 0 -- -- 88
2019-09-22 23:00:00 10.9 2 Sudeste 6 Este 0 -- -- 84
2019-09-22 22:00:00 13 2 Sudeste 8 Sur 0 -- -- 77
2019-09-22 21:00:00 15 3 Sur 13 Oeste 0 -- -- 64
2019-09-22 20:00:00 17.1 6 Sudoeste 22 Sudoeste 0 -- -- 55
2019-09-22 19:00:00 19.7 10 Oeste 22 Sudoeste 0 -- -- 50
2019-09-22 18:00:00 20 11 Oeste 19 Sudoeste 0 -- -- 51
2019-09-22 17:00:00 19.9 7 Sur 16 Oeste 0 -- -- 58
2019-09-22 16:00:00 18.7 6 Sudeste 14 Este 0 -- -- 72
2019-09-22 15:00:00 16.9 2 Este 10 Oeste 0.2 -- -- 82
2019-09-22 14:00:00 16.3 0 Calma 23 Oeste 0.8 -- -- 86
2019-09-22 13:00:00 17.9 14 Oeste 28 Sudoeste 0 -- -- 79
2019-09-22 12:00:00 18.9 4 Sudeste 12 Sudeste 0 -- -- 81
2019-09-22 11:00:00 16.9 0 Calma 7 Sudoeste 0.6 -- -- 92
2019-09-22 10:00:00 17.2 4 Sudoeste 20 Este 0.2 -- -- 87
2019-09-22 09:00:00 16.3 3 Sur 10 Sudeste 0 -- -- 92
2019-09-22 08:00:00 16.1 2 Noroeste 6 Norte 0.4 -- -- 91
2019-09-22 07:00:00 16.1 0 Calma 2 Sudeste 0 -- -- 90
2019-09-22 06:00:00 16 0 Calma 10 Noroeste 0 -- -- 90
2019-09-22 05:00:00 16.3 6 Noroeste 15 Noroeste 0.2 -- -- 87
2019-09-22 04:00:00 16.9 3 Norte 5 Norte 0 -- -- 81
2019-09-22 03:00:00 17.5 3 Norte 5 Este 0 -- -- 75
2019-09-22 02:00:00 17.2 0 Calma 7 Norte 0 -- -- 76
2019-09-22 01:00:00 17.2 0 Calma 11 Norte 0 -- -- 75
2019-09-22 00:00:00 17.8 2 Este 12 Norte 0 -- -- 75
2019-09-21 23:00:00 18.5 5 Este 13 Nordeste 0 -- -- 65
2019-09-21 22:00:00 19.7 5 Noroeste 12 Este 0 -- -- 57
2019-09-21 21:00:00 20.1 6 Este 10 Este 0 -- -- 53
2019-09-21 20:00:00 21.4 2 Sur 10 Sudeste 0 -- -- 48
2019-09-21 19:00:00 23.2 6 Sur 12 Sudoeste 0 -- -- 43
2019-09-21 18:00:00 22.6 8 Sur 23 Sudoeste 0 -- -- 43
2019-09-21 17:00:00 24.2 11 Sur 26 Sudoeste 0 -- -- 40
2019-09-21 16:00:00 24.1 8 Sur 17 Sur 0 -- -- 38
2019-09-21 15:00:00 23 6 Sur 23 Sudoeste 0 -- -- 46
2019-09-21 14:00:00 22.5 10 Sudeste 22 Sudeste 0 -- -- 48
2019-09-21 13:00:00 21.1 4 Sudeste 18 Noroeste 0 -- -- 50
2019-09-21 12:00:00 20.5 2 Sudeste 14 Noroeste 0 -- -- 51
2019-09-21 11:00:00 18.1 3 Noroeste 14 Noroeste 0 -- -- 60
2019-09-21 10:00:00 16.9 4 Sudeste 12 Nordeste 0 -- -- 70
2019-09-21 09:00:00 16.6 6 Este 18 Este 0 -- -- 73
2019-09-21 08:00:00 16.8 0 Calma 9 Sudeste 0 -- -- 75
2019-09-21 07:00:00 17.5 5 Sur 23 Este 0 -- -- 68
2019-09-21 06:00:00 18.3 8 Sudeste 18 Este 0 -- -- 62
2019-09-21 05:00:00 18 6 Este 14 Sudeste 0 -- -- 59
2019-09-21 04:00:00 17.9 5 Este 12 Este 0 -- -- 59
2019-09-21 03:00:00 18.5 2 Sudeste 19 Nordeste 0 -- -- 57
2019-09-21 02:00:00 18.9 3 Sudeste 12 Nordeste 0 -- -- 54
2019-09-21 01:00:00 18.8 5 Sudeste 22 Este 0 -- -- 59
2019-09-21 00:00:00 18.9 6 Sudeste 26 Sudeste 0 -- -- 63
2019-09-20 23:00:00 19.4 13 Sudeste 23 Este 0 -- -- 63
2019-09-20 22:00:00 20.4 12 Sudeste 19 Este 0 -- -- 60
2019-09-20 21:00:00 21.2 5 Este 15 Sur 0 -- -- 53
2019-09-20 20:00:00 22.2 7 Sudeste 21 Sudeste 0 -- -- 48
2019-09-20 19:00:00 23.7 14 Este 31 Este 0 -- -- 44
2019-09-20 18:00:00 24.7 15 Este 24 Este 0 -- -- 41
2019-09-20 17:00:00 26.6 12 Este 26 Nordeste 0 -- -- 37
2019-09-20 16:00:00 25.5 12 Este 27 Este 0 -- -- 41
2019-09-20 15:00:00 25.2 12 Este 32 Nordeste 0 -- -- 40
2019-09-20 14:00:00 25.3 15 Este 33 Este 0 -- -- 40
2019-09-20 13:00:00 23.6 14 Este 29 Este 0 -- -- 44
2019-09-20 12:00:00 22.9 17 Nordeste 32 Este 0 -- -- 45
2019-09-20 11:00:00 18.1 0 Calma 8 Este 0 -- -- 73
2019-09-20 10:00:00 15.8 2 Sur 9 Sudeste 0 -- -- 82
2019-09-20 09:00:00 13.9 3 Sudeste 8 Sur 0 -- -- 88
2019-09-20 08:00:00 12.9 3 Sudeste 6 Sur 0 -- -- 88
2019-09-20 07:00:00 13.6 3 Sur 7 Este 0 -- -- 88
2019-09-20 06:00:00 14.3 2 Este 6 Sudeste 0 -- -- 84
2019-09-20 05:00:00 14.5 0 Calma 8 Este 0 -- -- 83
2019-09-20 04:00:00 14.5 2 Nordeste 8 Este 0 -- -- 82
2019-09-20 03:00:00 14.5 0 Calma 6 Este 0 -- -- 83
2019-09-20 02:00:00 14.6 2 Este 6 Este 0 -- -- 82
2019-09-20 01:00:00 14.8 2 Nordeste 5 Nordeste 0 -- -- 80
2019-09-20 00:00:00 15.1 0 Calma 7 Sudoeste 0 -- -- 79